createdAt,value
2017-10-17T14:47:20.021Z,2180
2017-10-17T14:48:30.107Z,1076
2017-10-17T14:49:39.958Z,4684
2017-10-17T14:50:50.191Z,516
2017-10-17T14:52:00.320Z,3200
2017-10-17T14:53:10.874Z,3184
2017-10-17T14:54:21.119Z,3172
2017-10-17T14:55:31.257Z,3128
2017-10-17T14:56:40.954Z,3084
2017-10-17T14:57:51.079Z,720
2017-10-17T14:59:00.592Z,1904
2017-10-17T15:00:10.297Z,396
2017-10-17T15:01:20.321Z,536
2017-10-17T15:04:35.265Z,1288
2017-10-17T15:05:44.645Z,1296
2017-10-17T15:06:55.005Z,1016
2017-10-17T15:08:04.379Z,1248
2017-10-17T15:09:14.063Z,1140
2017-10-17T15:10:24.449Z,1208
2017-10-17T15:11:34.152Z,1172
2017-10-17T15:12:43.847Z,1140
2017-10-17T15:13:53.554Z,1116
2017-10-17T15:15:03.345Z,1100
2017-10-17T15:16:12.702Z,1092
2017-10-17T15:17:22.752Z,1084
2017-10-17T15:18:32.793Z,1076
2017-10-17T15:19:42.825Z,1064
2017-10-17T15:20:52.536Z,1052
2017-10-17T15:22:01.902Z,1048
2017-10-17T15:23:11.971Z,1044
2017-10-17T15:24:22.420Z,1044
2017-10-17T15:25:32.115Z,1044
2017-10-17T15:26:42.501Z,1040
2017-10-17T15:27:52.523Z,1028
2017-10-17T15:29:02.546Z,1008
2017-10-17T15:30:12.591Z,988
2017-10-17T15:31:22.944Z,972
2017-10-17T15:32:33.308Z,952
2017-10-17T15:33:43.677Z,936
2017-10-17T15:34:53.361Z,912
2017-10-17T15:36:03.379Z,888
2017-10-17T15:37:13.439Z,864
2017-10-17T15:38:23.463Z,836
2017-10-17T15:39:33.519Z,808
2017-10-17T15:40:43.920Z,768
2017-10-17T15:41:53.629Z,728
2017-10-17T15:43:03.331Z,692
2017-10-17T15:44:13.705Z,652
2017-10-17T15:45:24.076Z,616
2017-10-17T15:46:33.771Z,584
2017-10-17T15:47:43.117Z,556
2017-10-17T15:48:52.813Z,532
2017-10-17T15:50:02.502Z,508
2017-10-17T15:51:12.868Z,484
2017-10-17T15:52:22.568Z,464
2017-10-17T15:53:32.952Z,448
2017-10-17T15:54:42.336Z,436
2017-10-17T15:55:52.381Z,420
2017-10-17T15:57:02.797Z,384
2017-10-17T15:58:12.828Z,248
2017-10-17T15:59:22.868Z,348
2017-10-17T16:00:32.880Z,296
2017-10-17T16:01:42.900Z,332
2017-10-17T16:02:52.595Z,316
2017-10-17T16:04:02.302Z,304
2017-10-17T16:05:12.344Z,288
2017-10-17T16:06:22.046Z,276
2017-10-17T16:07:32.075Z,264
2017-10-17T16:08:41.462Z,252
2017-10-17T16:09:51.185Z,236
2017-10-17T16:11:01.596Z,228
2017-10-17T16:12:10.956Z,216
2017-10-17T16:13:20.349Z,204
2017-10-17T16:14:30.067Z,196
2017-10-17T16:15:40.489Z,184
2017-10-17T16:16:50.202Z,168
2017-10-17T16:17:59.944Z,160
2017-10-17T16:19:09.703Z,152
2017-10-17T16:20:19.433Z,140
2017-10-17T16:21:29.520Z,128
2017-10-17T16:22:39.598Z,120
2017-10-17T16:23:48.959Z,112
2017-10-17T16:24:58.361Z,100
2017-10-17T16:26:08.409Z,92
2017-10-17T16:27:18.163Z,88
2017-10-17T16:28:27.562Z,76
2017-10-17T16:29:37.599Z,68
2017-10-17T16:30:47.648Z,64
2017-10-17T16:31:58.028Z,56
2017-10-17T16:33:07.732Z,52
2017-10-17T16:34:17.750Z,52
2017-10-17T16:35:27.470Z,48
2017-10-17T16:36:37.522Z,40
2017-10-17T16:37:47.580Z,36
2017-10-17T16:38:57.644Z,32
2017-10-17T16:40:07.680Z,28
2017-10-17T16:41:17.821Z,28
2017-10-17T16:42:27.541Z,24
2017-10-17T16:43:37.231Z,24
2017-10-17T16:44:47.294Z,20
2017-10-17T16:45:57.350Z,16
2017-10-17T16:47:07.075Z,16
2017-10-17T16:48:16.121Z,12
2017-10-17T16:49:26.472Z,12
2017-10-17T16:50:36.506Z,12
2017-10-17T16:51:46.852Z,8
2017-10-17T16:52:56.882Z,4
2017-10-17T16:54:06.911Z,8
2017-10-17T16:55:16.612Z,4
2017-10-17T16:56:26.637Z,4
2017-10-17T16:57:36.661Z,4
2017-10-17T16:58:46.353Z,4
2017-10-17T16:59:56.372Z,4
2017-10-17T17:01:06.068Z,4
2017-10-17T17:02:16.110Z,0
2017-10-17T17:03:26.470Z,4
2017-10-17T17:04:35.829Z,4
2017-10-17T17:05:44.856Z,4
2017-10-17T17:06:54.889Z,4
2017-10-17T17:08:04.929Z,4
2017-10-17T17:09:14.608Z,4
2017-10-17T17:10:25.002Z,4
2017-10-17T17:11:35.392Z,4
2017-10-17T17:12:44.784Z,4
2017-10-17T17:13:54.813Z,4
2017-10-17T17:15:04.846Z,4
2017-10-17T17:16:14.908Z,4
2017-10-17T17:17:24.598Z,4
2017-10-17T17:18:34.279Z,4
2017-10-17T17:19:44.630Z,4
2017-10-17T17:20:53.974Z,4
2017-10-17T17:22:04.359Z,4
2017-10-17T17:23:14.052Z,4
2017-10-17T17:24:24.078Z,4
2017-10-17T17:25:34.100Z,4
2017-10-17T17:26:43.780Z,4
2017-10-17T17:27:53.129Z,4
2017-10-17T17:29:02.830Z,4
2017-10-17T17:30:12.525Z,4
2017-10-17T17:31:22.570Z,4
2017-10-17T17:32:32.269Z,4
2017-10-17T17:33:42.633Z,4
2017-10-17T17:34:52.650Z,4
2017-10-17T17:36:02.794Z,4
2017-10-17T17:37:12.512Z,4
2017-10-17T17:38:22.586Z,4
2017-10-17T17:39:33.068Z,4
2017-10-17T17:40:43.101Z,4
2017-10-17T17:41:53.477Z,4
2017-10-17T17:43:03.513Z,4
2017-10-17T17:44:13.211Z,4
2017-10-17T17:45:23.262Z,4
2017-10-17T17:46:32.960Z,4
2017-10-17T17:47:42.646Z,4
2017-10-17T17:48:52.008Z,4
2017-10-17T17:50:01.693Z,4
2017-10-17T17:51:12.057Z,4
2017-10-17T17:52:21.743Z,4
2017-10-17T17:53:31.473Z,4
2017-10-17T17:54:41.156Z,4
2017-10-17T17:55:51.177Z,4
2017-10-17T17:57:00.534Z,4
2017-10-17T17:58:10.605Z,4
2017-10-17T17:59:20.655Z,4
2017-10-17T18:00:30.677Z,4
2017-10-17T18:01:41.036Z,4
2017-10-17T18:02:50.449Z,4
2017-10-17T18:04:00.189Z,4
2017-10-17T18:05:09.886Z,4
2017-10-17T18:06:19.941Z,4
2017-10-17T18:07:29.619Z,4
2017-10-17T18:08:39.302Z,4
2017-10-17T18:09:49.002Z,4
2017-10-17T18:10:59.043Z,4
2017-10-17T18:12:09.121Z,4
2017-10-17T18:13:18.799Z,4
2017-10-17T18:14:29.163Z,4
2017-10-17T18:15:39.182Z,4
2017-10-17T18:16:48.193Z,4
2017-10-17T18:17:58.223Z,4
2017-10-17T18:19:07.953Z,4
2017-10-17T18:20:17.973Z,4
2017-10-17T18:21:27.767Z,4
2017-10-17T18:22:37.953Z,4
2017-10-17T18:23:47.478Z,4
2017-10-17T18:24:58.128Z,4
2017-10-17T18:26:08.102Z,4
2017-10-17T18:27:18.121Z,4
2017-10-17T18:28:28.466Z,4
2017-10-17T18:29:38.307Z,4
2017-10-17T18:30:47.662Z,4
2017-10-17T18:31:57.047Z,4
2017-10-17T18:33:07.200Z,4
2017-10-17T18:34:17.121Z,4
2017-10-17T18:35:27.377Z,4
2017-10-17T18:36:36.821Z,4
2017-10-17T18:37:46.924Z,4
2017-10-17T18:38:57.431Z,4
2017-10-17T18:40:06.969Z,4
2017-10-17T18:41:17.038Z,4
2017-10-17T18:42:27.276Z,4
2017-10-17T18:43:36.929Z,4
2017-10-17T18:44:46.770Z,4
2017-10-17T18:45:55.914Z,4
2017-10-17T18:47:06.082Z,4
2017-10-17T18:48:16.316Z,4
2017-10-17T18:49:26.270Z,4
2017-10-17T18:50:36.869Z,4
2017-10-17T18:51:47.385Z,4
2017-10-17T18:52:56.944Z,4
2017-10-17T18:54:06.044Z,4
2017-10-17T18:55:16.034Z,4
2017-10-17T18:56:25.981Z,4
2017-10-17T18:57:35.545Z,4
2017-10-17T18:58:45.072Z,4
2017-10-17T18:59:55.654Z,4
2017-10-17T19:01:05.886Z,4
2017-10-17T19:02:15.390Z,4
2017-10-17T19:03:24.889Z,4
2017-10-17T19:04:35.281Z,4
2017-10-17T19:05:45.489Z,4
2017-10-17T19:06:55.691Z,4
2017-10-17T19:08:04.807Z,4
2017-10-17T19:09:14.615Z,4
2017-10-17T19:10:24.107Z,4
2017-10-17T19:11:34.339Z,4
2017-10-17T19:12:44.389Z,4
2017-10-17T19:13:54.560Z,4
2017-10-17T19:15:04.416Z,4
2017-10-17T19:16:14.694Z,4
2017-10-17T19:17:24.475Z,4
2017-10-17T19:18:34.298Z,4
2017-10-17T19:19:44.857Z,4
2017-10-17T19:20:54.397Z,4
2017-10-17T19:22:04.142Z,4
2017-10-17T19:23:14.111Z,4
2017-10-17T19:24:24.399Z,4
2017-10-17T19:25:34.563Z,4
2017-10-17T19:26:45.111Z,4
2017-10-17T19:27:55.058Z,4
2017-10-17T19:29:04.958Z,4
2017-10-17T19:30:15.399Z,4
2017-10-17T19:31:25.268Z,4
2017-10-17T19:32:35.516Z,4
2017-10-17T19:33:45.325Z,4
2017-10-17T19:34:55.118Z,4
2017-10-17T19:36:05.624Z,4
2017-10-17T19:37:15.417Z,4
2017-10-17T19:38:25.812Z,4
2017-10-17T19:39:35.648Z,4
2017-10-17T19:40:45.739Z,4
2017-10-17T19:41:55.892Z,4
2017-10-17T19:43:05.733Z,4
2017-10-17T19:44:15.508Z,4
2017-10-17T19:45:25.315Z,4
2017-10-17T19:46:34.742Z,4
2017-10-17T19:47:44.228Z,4
2017-10-17T19:48:54.732Z,4
2017-10-17T19:50:05.150Z,4
2017-10-17T19:51:15.376Z,4
2017-10-17T19:52:25.302Z,4
2017-10-17T19:53:34.543Z,4
2017-10-17T19:54:44.387Z,4
2017-10-17T19:55:53.944Z,4
2017-10-17T19:57:04.225Z,4
2017-10-17T19:58:14.741Z,4
2017-10-17T19:59:24.888Z,4
2017-10-17T20:00:35.060Z,4
2017-10-17T20:01:44.954Z,4
2017-10-17T20:02:55.072Z,4
2017-10-17T20:04:04.815Z,4
2017-10-17T20:05:15.029Z,4
2017-10-17T20:06:24.534Z,4
2017-10-17T20:07:34.378Z,4
2017-10-17T20:08:44.160Z,4
2017-10-17T20:09:54.352Z,4
2017-10-17T20:11:04.751Z,4
2017-10-17T20:12:14.908Z,4
2017-10-17T20:13:23.957Z,4
2017-10-17T20:14:34.490Z,4
2017-10-17T20:15:45.091Z,4
2017-10-17T20:16:54.622Z,4
2017-10-17T20:18:05.103Z,4
2017-10-17T20:19:14.840Z,4
2017-10-17T20:20:24.955Z,4
2017-10-17T20:21:34.357Z,4
2017-10-17T20:22:44.164Z,4
2017-10-17T20:23:55.003Z,4
2017-10-17T20:25:05.066Z,4
2017-10-17T20:26:15.268Z,4
2017-10-17T20:27:25.317Z,4
2017-10-17T20:28:35.003Z,4
2017-10-17T20:29:44.394Z,4
2017-10-17T20:30:53.782Z,4
2017-10-17T20:32:03.553Z,4
2017-10-17T20:33:14.186Z,4
2017-10-17T20:34:22.968Z,4
2017-10-17T20:35:33.283Z,4
2017-10-17T20:36:42.988Z,4
2017-10-17T20:37:53.025Z,4
2017-10-17T20:39:03.071Z,4
2017-10-17T20:40:13.563Z,4
2017-10-17T20:41:23.286Z,4
2017-10-17T20:42:33.534Z,4
2017-10-17T20:43:43.652Z,4
2017-10-17T20:44:53.793Z,4
2017-10-17T20:46:03.199Z,4
2017-10-17T20:47:13.229Z,4
2017-10-17T20:48:23.657Z,4
2017-10-17T20:49:33.379Z,4
2017-10-17T20:50:43.117Z,4
2017-10-17T20:51:53.181Z,4
2017-10-17T20:53:03.216Z,4
2017-10-17T20:54:13.312Z,4
2017-10-17T20:55:23.092Z,4
2017-10-17T20:56:33.144Z,4
2017-10-17T20:57:42.876Z,4
2017-10-17T20:58:52.609Z,4
2017-10-17T21:00:01.636Z,4
2017-10-17T21:01:11.344Z,4
2017-10-17T21:02:21.421Z,4
2017-10-17T21:03:30.797Z,4
2017-10-17T21:04:40.834Z,4
2017-10-17T21:05:51.196Z,4
2017-10-17T21:07:00.911Z,4
2017-10-17T21:08:10.637Z,4
2017-10-17T21:09:20.686Z,4
2017-10-17T21:10:30.042Z,4
2017-10-17T21:11:39.437Z,4
2017-10-17T21:12:49.473Z,4
2017-10-17T21:13:58.512Z,4
2017-10-17T21:15:08.555Z,4
2017-10-17T21:16:18.582Z,4
2017-10-17T21:17:28.596Z,4
2017-10-17T21:18:38.027Z,4
2017-10-17T21:19:47.779Z,4
2017-10-17T21:20:57.813Z,4
2017-10-17T21:22:07.846Z,4
2017-10-17T21:23:17.882Z,4
2017-10-17T21:24:28.249Z,4
2017-10-17T21:25:38.030Z,4
2017-10-17T21:26:47.739Z,4
2017-10-17T21:27:58.100Z,4
2017-10-17T21:29:08.144Z,4
2017-10-17T21:30:17.217Z,4
2017-10-17T21:31:27.295Z,4
2017-10-17T21:32:36.640Z,4
2017-10-17T21:33:45.328Z,4
2017-10-17T21:34:54.684Z,4
2017-10-17T21:36:05.064Z,4
2017-10-17T21:37:14.747Z,4
2017-10-17T21:38:25.106Z,4
2017-10-17T21:39:35.145Z,4
2017-10-17T21:40:45.494Z,4
2017-10-17T21:41:54.522Z,4
2017-10-17T21:43:04.236Z,4
2017-10-17T21:44:14.245Z,4
2017-10-17T21:45:24.315Z,4
2017-10-17T21:46:34.051Z,4
2017-10-17T21:47:43.821Z,4
2017-10-17T21:48:53.166Z,4
2017-10-17T21:50:02.511Z,4
2017-10-17T21:51:12.867Z,4
2017-10-17T21:52:22.888Z,4
2017-10-17T21:53:32.957Z,4
2017-10-17T21:54:42.641Z,4
2017-10-17T21:55:53.020Z,4
2017-10-17T21:57:03.084Z,4
2017-10-17T21:58:13.116Z,4
2017-10-17T21:59:23.196Z,4
2017-10-17T22:00:32.566Z,4
2017-10-17T22:01:42.919Z,4
2017-10-17T22:02:52.942Z,4
2017-10-17T22:04:02.634Z,4
2017-10-17T22:05:12.340Z,4
2017-10-17T22:06:22.760Z,4
2017-10-17T22:07:32.784Z,4
2017-10-17T22:08:43.198Z,4
2017-10-17T22:09:52.555Z,4
2017-10-17T22:11:02.256Z,4
2017-10-17T22:12:12.327Z,4
2017-10-17T22:13:22.033Z,4
2017-10-17T22:14:31.717Z,4
2017-10-17T22:15:41.757Z,4
2017-10-17T22:16:51.448Z,4
2017-10-17T22:18:00.831Z,4
2017-10-17T22:19:10.517Z,4
2017-10-17T22:20:20.879Z,4
2017-10-17T22:21:30.910Z,4
2017-10-17T22:22:41.285Z,4
2017-10-17T22:23:50.307Z,4
2017-10-17T22:25:00.330Z,4
2017-10-17T22:26:10.347Z,4
2017-10-17T22:27:20.697Z,4
2017-10-17T22:28:30.396Z,4
2017-10-17T22:29:40.065Z,4
2017-10-17T22:30:49.755Z,4
2017-10-17T22:31:59.449Z,4
2017-10-17T22:33:08.803Z,4
2017-10-17T22:34:18.870Z,4
2017-10-17T22:35:28.932Z,4
2017-10-17T22:36:38.656Z,4
2017-10-17T22:37:48.352Z,4
2017-10-17T22:38:57.358Z,4
2017-10-17T22:40:07.737Z,4
2017-10-17T22:41:18.103Z,4
2017-10-17T22:42:28.295Z,4
2017-10-17T22:43:37.981Z,4
2017-10-17T22:44:47.672Z,4
2017-10-17T22:45:57.356Z,4
2017-10-17T22:47:07.061Z,4
2017-10-17T22:48:17.101Z,4
2017-10-17T22:49:27.451Z,4
2017-10-17T22:50:36.801Z,4
2017-10-17T22:51:46.162Z,4
2017-10-17T22:52:55.868Z,4
2017-10-17T22:54:05.909Z,4
2017-10-17T22:55:16.308Z,4
2017-10-17T22:56:26.003Z,4
2017-10-17T22:57:35.696Z,4
2017-10-17T22:58:45.077Z,4
2017-10-17T22:59:55.096Z,4
2017-10-17T23:01:04.455Z,4
2017-10-17T23:02:14.136Z,4
2017-10-17T23:03:23.826Z,4
2017-10-17T23:04:33.513Z,4
2017-10-17T23:05:43.536Z,4
2017-10-17T23:06:52.559Z,4
2017-10-17T23:08:01.921Z,4
2017-10-17T23:09:11.939Z,4
2017-10-17T23:10:22.313Z,4
2017-10-17T23:11:32.005Z,4
2017-10-17T23:12:41.694Z,4
2017-10-17T23:13:52.046Z,4
2017-10-17T23:15:02.071Z,4
2017-10-17T23:16:11.761Z,4
2017-10-17T23:17:22.127Z,4
2017-10-17T23:18:31.814Z,4
2017-10-17T23:19:42.159Z,4
2017-10-17T23:20:51.833Z,4
2017-10-17T23:22:02.195Z,4
2017-10-17T23:23:12.224Z,4
2017-10-17T23:24:21.908Z,4
2017-10-17T23:25:31.965Z,4
2017-10-17T23:26:41.655Z,4
2017-10-17T23:27:52.016Z,4
2017-10-17T23:29:02.671Z,4
2017-10-17T23:30:12.694Z,4
2017-10-17T23:31:22.060Z,4
2017-10-17T23:32:32.072Z,4
2017-10-17T23:33:42.436Z,4
2017-10-17T23:34:52.445Z,4
2017-10-17T23:36:02.808Z,4
2017-10-17T23:37:12.839Z,4
2017-10-17T23:38:22.877Z,4
2017-10-17T23:39:32.918Z,4
2017-10-17T23:40:42.937Z,4
2017-10-17T23:41:52.961Z,4
2017-10-17T23:43:02.992Z,4
2017-10-17T23:44:12.682Z,4
2017-10-17T23:45:22.704Z,4
2017-10-17T23:46:32.057Z,4
2017-10-17T23:47:41.397Z,4
2017-10-17T23:48:50.752Z,4
2017-10-17T23:50:00.099Z,4
2017-10-17T23:51:09.809Z,4
2017-10-17T23:52:19.852Z,4
2017-10-17T23:53:29.204Z,4
2017-10-17T23:54:38.894Z,4
2017-10-17T23:55:48.574Z,4
2017-10-17T23:56:58.925Z,4
2017-10-17T23:58:08.621Z,4
2017-10-17T23:59:18.643Z,4
